createdAt,value
2019-04-03T00:00:43.031Z,90.60
2019-04-03T00:03:12.370Z,90.70
2019-04-03T00:05:41.645Z,90.80
2019-04-03T00:08:10.945Z,90.90
2019-04-03T00:10:40.276Z,91.00
2019-04-03T00:13:11.178Z,91.10
2019-04-03T00:15:40.780Z,91.20
2019-04-03T00:18:10.140Z,91.50
2019-04-03T00:20:39.445Z,91.60
2019-04-03T00:23:08.814Z,91.70
2019-04-03T00:25:38.398Z,92.20
2019-04-03T00:28:07.688Z,91.80
2019-04-03T00:30:36.981Z,91.90
2019-04-03T00:33:06.336Z,91.90
2019-04-03T00:35:35.607Z,92.00
2019-04-03T00:38:04.893Z,92.10
2019-04-03T00:40:34.233Z,92.10
2019-04-03T00:43:03.638Z,92.20
2019-04-03T00:45:32.961Z,92.20
2019-04-03T00:48:02.237Z,92.20
2019-04-03T00:50:32.577Z,92.50
2019-04-03T00:53:01.958Z,92.10
2019-04-03T00:55:31.224Z,92.10
2019-04-03T00:58:00.509Z,92.10
2019-04-03T01:00:29.813Z,92.10
2019-04-03T01:02:59.149Z,92.10
2019-04-03T01:05:29.057Z,92.10
2019-04-03T01:08:00.178Z,92.50
2019-04-03T01:10:30.260Z,92.10
2019-04-03T01:13:02.067Z,92.20
2019-04-03T01:15:32.172Z,92.20
2019-04-03T01:18:04.413Z,92.20
2019-04-03T01:20:32.694Z,92.20
2019-04-03T01:23:01.968Z,92.10
2019-04-03T01:25:31.253Z,92.10
2019-04-03T01:28:00.533Z,92.10
2019-04-03T01:30:29.805Z,91.90
2019-04-03T01:32:59.079Z,91.80
2019-04-03T01:35:28.358Z,91.80
2019-04-03T01:37:57.624Z,91.80
2019-04-03T01:40:26.925Z,91.60
2019-04-03T01:42:56.211Z,91.60
2019-04-03T01:45:26.228Z,91.50
2019-04-03T01:47:57.424Z,91.30
2019-04-03T01:50:28.720Z,91.10
2019-04-03T01:52:58.438Z,91.10
2019-04-03T01:55:27.725Z,91.00
2019-04-03T01:57:57.116Z,90.90
2019-04-03T02:00:27.504Z,90.90
2019-04-03T02:02:56.865Z,90.90
2019-04-03T02:05:26.131Z,90.90
2019-04-03T02:07:55.401Z,91.00
2019-04-03T02:10:26.709Z,91.00
2019-04-03T02:12:56.056Z,91.10
2019-04-03T02:15:25.330Z,91.10
2019-04-03T02:17:55.237Z,91.10
2019-04-03T02:20:26.535Z,91.10
2019-04-03T02:22:59.631Z,91.10
2019-04-03T02:25:27.589Z,91.10
2019-04-03T02:27:56.870Z,91.10
2019-04-03T02:30:26.140Z,91.00
2019-04-03T02:32:56.902Z,91.00
2019-04-03T02:35:26.394Z,90.90
2019-04-03T02:37:55.794Z,90.80
2019-04-03T02:40:25.163Z,91.10
2019-04-03T02:42:54.826Z,90.70
2019-04-03T02:45:24.891Z,90.70
2019-04-03T02:47:54.367Z,90.70
2019-04-03T02:50:25.646Z,90.70
2019-04-03T02:52:57.990Z,90.70
2019-04-03T02:55:26.793Z,91.00
2019-04-03T02:57:56.125Z,90.90
2019-04-03T03:00:25.431Z,90.60
2019-04-03T03:02:54.966Z,90.50
2019-04-03T03:05:27.219Z,90.90
2019-04-03T03:07:55.439Z,90.70
2019-04-03T03:10:24.953Z,90.40
2019-04-03T03:12:55.395Z,90.40
2019-04-03T03:15:26.950Z,90.40
2019-04-03T03:17:56.573Z,90.40
2019-04-03T03:20:29.054Z,90.40
2019-04-03T03:22:59.444Z,90.40
2019-04-03T03:25:32.234Z,90.30
2019-04-03T03:28:00.276Z,90.30
2019-04-03T03:30:41.937Z,90.30
2019-04-03T03:33:24.479Z,90.30
2019-04-03T03:35:42.556Z,90.20
2019-04-03T03:38:07.639Z,90.10
2019-04-03T03:40:38.185Z,90.00
2019-04-03T03:43:07.988Z,89.60
2019-04-03T03:45:37.494Z,89.40
2019-04-03T03:48:09.399Z,89.40
2019-04-03T03:50:38.950Z,89.50
2019-04-03T03:53:11.791Z,89.50
2019-04-03T03:55:39.968Z,89.30
2019-04-03T03:58:12.151Z,89.00
2019-04-03T04:00:41.188Z,88.80
2019-04-03T04:03:11.279Z,88.70
2019-04-03T04:05:41.290Z,88.60
2019-04-03T04:08:11.620Z,88.90
2019-04-03T04:10:42.244Z,89.10
2019-04-03T04:13:15.147Z,89.30
2019-04-03T04:15:43.329Z,89.40
2019-04-03T04:18:14.411Z,89.70
2019-04-03T04:20:44.549Z,89.80
2019-04-03T04:23:13.980Z,89.90
2019-04-03T04:25:44.637Z,90.10
2019-04-03T04:28:14.297Z,90.20
2019-04-03T04:30:46.017Z,90.20
2019-04-03T04:33:16.949Z,90.30
2019-04-03T04:35:46.473Z,90.40
2019-04-03T04:38:15.757Z,90.40
2019-04-03T04:40:45.021Z,90.80
2019-04-03T04:43:14.362Z,90.90
2019-04-03T04:45:43.632Z,90.50
2019-04-03T04:48:16.202Z,90.60
2019-04-03T04:50:44.883Z,90.70
2019-04-03T04:53:14.288Z,90.80
2019-04-03T04:55:43.562Z,90.80
2019-04-03T04:58:12.830Z,90.90
2019-04-03T05:00:42.177Z,91.00
2019-04-03T05:03:11.472Z,91.10
2019-04-03T05:05:40.731Z,91.60
2019-04-03T05:08:10.019Z,91.30
2019-04-03T05:10:39.510Z,91.40
2019-04-03T05:13:08.761Z,91.50
2019-04-03T05:15:38.058Z,91.50
2019-04-03T05:18:08.289Z,91.70
2019-04-03T05:20:37.571Z,91.70
2019-04-03T05:23:06.841Z,91.80
2019-04-03T05:25:36.179Z,91.90
2019-04-03T05:28:05.505Z,91.90
2019-04-03T05:30:37.781Z,91.90
2019-04-03T05:33:06.957Z,92.00
2019-04-03T05:35:37.561Z,92.00
2019-04-03T05:38:07.071Z,92.00
2019-04-03T05:40:36.646Z,92.10
2019-04-03T05:43:06.000Z,92.00
2019-04-03T05:45:35.714Z,92.00
2019-04-03T05:48:05.975Z,92.00
2019-04-03T05:50:36.689Z,92.00
2019-04-03T05:53:06.630Z,92.10
2019-04-03T05:55:35.961Z,92.10
2019-04-03T05:58:05.459Z,92.20
2019-04-03T06:00:37.530Z,92.20
2019-04-03T06:03:05.876Z,92.30
2019-04-03T06:05:35.145Z,92.40
2019-04-03T06:08:04.433Z,92.50
2019-04-03T06:10:36.554Z,92.50
2019-04-03T06:13:05.775Z,92.60
2019-04-03T06:15:35.638Z,92.50
2019-04-03T06:18:05.101Z,92.50
2019-04-03T06:20:34.424Z,92.60
2019-04-03T06:23:03.689Z,92.60
2019-04-03T06:25:33.062Z,92.60
2019-04-03T06:28:02.609Z,92.70
2019-04-03T06:30:32.013Z,92.70
2019-04-03T06:33:02.150Z,92.80
2019-04-03T06:35:34.621Z,92.90
2019-04-03T06:38:02.601Z,92.90
2019-04-03T06:40:32.183Z,93.00
2019-04-03T06:43:03.059Z,92.90
2019-04-03T06:45:32.309Z,93.00
2019-04-03T06:48:04.249Z,93.00
2019-04-03T06:50:32.570Z,93.00
2019-04-03T06:53:01.900Z,93.00
2019-04-03T06:55:31.234Z,93.10
2019-04-03T06:58:00.894Z,93.10
2019-04-03T07:00:31.171Z,93.20
2019-04-03T07:03:01.493Z,93.20
2019-04-03T07:05:31.423Z,93.20
2019-04-03T07:08:01.310Z,93.20
2019-04-03T07:10:31.520Z,93.20
2019-04-03T07:13:00.778Z,93.30
2019-04-03T07:15:30.053Z,93.40
2019-04-03T07:18:01.067Z,93.40
2019-04-03T07:20:30.350Z,93.40
2019-04-03T07:22:59.639Z,93.40
2019-04-03T07:25:28.998Z,93.80
2019-04-03T07:27:58.341Z,93.50
2019-04-03T07:30:27.660Z,93.40
2019-04-03T07:32:58.295Z,93.40
2019-04-03T07:35:27.811Z,93.50
2019-04-03T07:37:57.101Z,93.50
2019-04-03T07:40:26.570Z,93.60
2019-04-03T07:42:56.944Z,93.40
2019-04-03T07:45:26.373Z,93.40
2019-04-03T07:47:55.686Z,93.40
2019-04-03T07:50:25.031Z,93.40
2019-04-03T07:52:54.341Z,93.30
2019-04-03T07:55:24.276Z,93.30
2019-04-03T07:57:54.625Z,93.30
2019-04-03T08:00:24.042Z,93.20
2019-04-03T08:02:53.510Z,93.30
2019-04-03T08:05:22.806Z,93.20
2019-04-03T08:07:52.077Z,93.20
2019-04-03T08:10:21.368Z,93.20
2019-04-03T08:12:50.666Z,93.60
2019-04-03T08:15:20.090Z,93.30
2019-04-03T08:17:49.892Z,93.30
2019-04-03T08:20:20.580Z,93.30
2019-04-03T08:22:50.019Z,93.40
2019-04-03T08:25:19.668Z,93.40
2019-04-03T08:27:49.019Z,93.40
2019-04-03T08:30:18.530Z,93.40
2019-04-03T08:32:48.958Z,93.40
2019-04-03T08:35:23.084Z,93.30
2019-04-03T08:37:50.398Z,93.30
2019-04-03T08:40:20.319Z,93.30
2019-04-03T08:42:50.437Z,93.30
2019-04-03T08:45:21.991Z,93.20
2019-04-03T08:47:50.711Z,93.20
2019-04-03T08:50:20.033Z,93.10
2019-04-03T08:52:50.962Z,93.00
2019-04-03T08:55:20.547Z,92.90
2019-04-03T08:57:52.083Z,92.80
2019-04-03T09:00:22.159Z,92.60
2019-04-03T09:02:51.476Z,92.50
2019-04-03T09:05:20.764Z,92.50
2019-04-03T09:07:50.113Z,92.50
2019-04-03T09:10:19.526Z,92.40
2019-04-03T09:12:49.032Z,92.40
2019-04-03T09:15:18.440Z,92.40
2019-04-03T09:17:48.086Z,92.40
2019-04-03T09:20:19.127Z,92.40
2019-04-03T09:22:49.887Z,92.40
2019-04-03T09:25:20.896Z,92.30
2019-04-03T09:27:50.197Z,92.20
2019-04-03T09:30:19.813Z,92.20
2019-04-03T09:32:49.101Z,92.20
2019-04-03T09:35:18.424Z,92.00
2019-04-03T09:37:47.831Z,91.80
2019-04-03T09:40:17.907Z,91.70
2019-04-03T09:42:47.571Z,91.50
2019-04-03T09:45:17.010Z,91.50
2019-04-03T09:47:46.346Z,91.10
2019-04-03T09:50:16.135Z,91.20
2019-04-03T09:52:49.351Z,91.30
2019-04-03T09:55:16.480Z,91.30
2019-04-03T09:57:45.745Z,91.70
2019-04-03T10:00:16.190Z,91.20
2019-04-03T10:02:45.525Z,91.10
2019-04-03T10:05:15.640Z,91.00
2019-04-03T10:07:44.934Z,90.80
2019-04-03T10:10:16.536Z,90.60
2019-04-03T10:12:48.024Z,90.60
2019-04-03T10:15:19.722Z,90.40
2019-04-03T10:17:48.996Z,90.30
2019-04-03T10:20:20.996Z,89.90
2019-04-03T10:22:50.633Z,88.90
2019-04-03T10:25:19.909Z,88.20
2019-04-03T10:27:49.197Z,87.90
2019-04-03T10:30:21.559Z,88.20
2019-04-03T10:32:50.412Z,87.80
2019-04-03T10:35:19.853Z,87.60
2019-04-03T10:37:49.129Z,87.90
2019-04-03T10:40:18.838Z,87.90
2019-04-03T10:42:48.254Z,87.90
2019-04-03T10:45:19.474Z,87.70
2019-04-03T10:47:49.008Z,87.80
2019-04-03T10:50:18.461Z,87.80
2019-04-03T10:52:49.276Z,87.60
2019-04-03T10:55:18.684Z,87.60
2019-04-03T10:57:48.232Z,87.40
2019-04-03T11:00:17.800Z,86.40
2019-04-03T11:02:47.132Z,86.20
2019-04-03T11:05:17.211Z,85.50
2019-04-03T11:07:46.914Z,84.60
2019-04-03T11:10:16.609Z,84.00
2019-04-03T11:12:45.924Z,83.80
2019-04-03T11:15:15.840Z,83.80
2019-04-03T11:17:45.285Z,83.80
2019-04-03T11:20:15.810Z,83.10
2019-04-03T11:22:45.925Z,83.30
2019-04-03T11:25:16.554Z,83.20
2019-04-03T11:27:46.256Z,83.00
2019-04-03T11:30:54.191Z,82.40
2019-04-03T11:32:48.412Z,82.10
2019-04-03T11:35:20.813Z,81.90
2019-04-03T11:37:48.666Z,82.10
2019-04-03T11:40:18.805Z,81.70
2019-04-03T11:42:48.229Z,80.90
2019-04-03T11:45:19.302Z,80.80
2019-04-03T11:47:48.645Z,80.80
2019-04-03T11:50:18.456Z,80.30
2019-04-03T11:52:47.961Z,79.50
2019-04-03T11:55:17.801Z,79.80
2019-04-03T11:57:48.597Z,79.10
2019-04-03T12:00:20.911Z,78.50
2019-04-03T12:02:50.313Z,78.20
2019-04-03T12:05:20.995Z,78.30
2019-04-03T12:07:51.206Z,77.90
2019-04-03T12:10:20.497Z,77.00
2019-04-03T12:12:49.774Z,75.90
2019-04-03T12:15:21.410Z,75.30
2019-04-03T12:17:50.194Z,74.80
2019-04-03T12:20:19.476Z,74.80
2019-04-03T12:22:48.763Z,74.90
2019-04-03T12:25:18.293Z,75.00
2019-04-03T12:27:47.787Z,74.90
2019-04-03T12:30:17.674Z,74.70
2019-04-03T12:32:49.013Z,74.40
2019-04-03T12:35:17.914Z,74.50
2019-04-03T12:37:49.484Z,74.30
2019-04-03T12:40:18.287Z,74.40
2019-04-03T12:42:47.886Z,74.40
2019-04-03T12:45:18.734Z,74.70
2019-04-03T12:47:48.194Z,74.90
2019-04-03T12:50:17.592Z,75.00
2019-04-03T12:52:46.881Z,75.20
2019-04-03T12:55:16.177Z,75.30
2019-04-03T12:57:45.506Z,75.20
2019-04-03T13:00:16.175Z,74.80
2019-04-03T13:02:45.778Z,74.70
2019-04-03T13:05:16.765Z,75.20
2019-04-03T13:07:47.562Z,75.10
2019-04-03T13:10:17.881Z,74.90
2019-04-03T13:12:47.161Z,74.50
2019-04-03T13:15:17.126Z,74.70
2019-04-03T13:17:46.618Z,74.90
2019-04-03T13:20:16.024Z,74.60
2019-04-03T13:22:45.322Z,74.20
2019-04-03T13:25:15.161Z,74.10
2019-04-03T13:27:44.485Z,73.90
2019-04-03T13:30:15.514Z,74.10
2019-04-03T13:32:56.773Z,74.20
2019-04-03T13:35:16.749Z,74.20
2019-04-03T13:37:46.440Z,73.80
2019-04-03T13:40:16.663Z,73.80
2019-04-03T13:42:49.278Z,73.60
2019-04-03T13:45:17.236Z,73.80
2019-04-03T13:47:47.134Z,74.10
2019-04-03T13:50:17.296Z,74.10
2019-04-03T13:52:49.655Z,73.80
2019-04-03T13:55:17.669Z,73.80
2019-04-03T13:57:49.219Z,73.90
2019-04-03T14:00:22.982Z,73.70
2019-04-03T14:02:50.650Z,73.40
2019-04-03T14:05:19.935Z,73.50
2019-04-03T14:07:49.350Z,73.70
2019-04-03T14:10:18.794Z,73.90
2019-04-03T14:12:48.407Z,74.10
2019-04-03T14:15:20.327Z,74.10
2019-04-03T14:17:57.060Z,73.50
2019-04-03T14:20:22.980Z,73.20
2019-04-03T14:22:54.518Z,73.30
2019-04-03T14:25:27.449Z,73.10
2019-04-03T14:27:54.764Z,73.00
2019-04-03T14:30:24.098Z,72.60
2019-04-03T14:32:54.651Z,73.20
2019-04-03T14:35:45.380Z,73.30
2019-04-03T14:37:58.319Z,72.90
2019-04-03T14:40:26.356Z,72.80
2019-04-03T14:42:58.192Z,73.00
2019-04-03T14:45:26.607Z,73.10
2019-04-03T14:47:56.369Z,73.20
2019-04-03T14:50:26.050Z,73.00
2019-04-03T14:52:55.370Z,73.10
2019-04-03T14:55:26.608Z,74.10
2019-04-03T14:57:56.263Z,73.30
2019-04-03T15:00:29.909Z,73.40
2019-04-03T15:02:57.541Z,73.40
2019-04-03T15:05:26.999Z,73.70
2019-04-03T15:07:56.254Z,74.10
2019-04-03T15:10:25.536Z,74.40
2019-04-03T15:12:54.802Z,74.70
2019-04-03T15:15:26.375Z,74.70
2019-04-03T15:17:55.044Z,74.70
2019-04-03T15:20:24.330Z,75.00
2019-04-03T15:22:53.905Z,75.00
2019-04-03T15:25:23.710Z,74.90
2019-04-03T15:27:53.137Z,74.90
2019-04-03T15:30:24.820Z,75.00
2019-04-03T15:32:53.534Z,75.40
2019-04-03T15:35:23.096Z,75.60
2019-04-03T15:37:53.659Z,75.80
2019-04-03T15:40:25.740Z,75.80
2019-04-03T15:42:54.725Z,75.70
2019-04-03T15:45:25.482Z,75.60
2019-04-03T15:47:57.572Z,75.70
2019-04-03T15:50:28.385Z,75.40
2019-04-03T15:52:58.081Z,75.40
2019-04-03T15:55:27.450Z,75.60
2019-04-03T15:57:56.869Z,75.60
2019-04-03T16:00:27.537Z,75.60
2019-04-03T16:02:56.935Z,75.80
2019-04-03T16:05:26.254Z,76.20
2019-04-03T16:07:55.530Z,76.40
2019-04-03T16:10:25.826Z,76.90
2019-04-03T16:12:55.182Z,77.30
2019-04-03T16:15:24.627Z,77.70
2019-04-03T16:17:54.386Z,77.80
2019-04-03T16:20:23.706Z,78.20
2019-04-03T16:22:53.036Z,78.60
2019-04-03T16:25:22.315Z,78.80
2019-04-03T16:27:51.655Z,79.20
2019-04-03T16:30:22.069Z,79.70
2019-04-03T16:32:51.360Z,80.00
2019-04-03T16:35:20.655Z,80.20
2019-04-03T16:37:51.310Z,80.40
2019-04-03T16:40:21.341Z,80.60
2019-04-03T16:42:52.967Z,80.50
2019-04-03T16:45:21.821Z,80.70
2019-04-03T16:47:51.140Z,80.80
2019-04-03T16:50:20.466Z,80.90
2019-04-03T16:52:49.749Z,80.90
2019-04-03T16:55:19.333Z,81.00
2019-04-03T16:57:48.672Z,81.20
2019-04-03T17:00:19.378Z,81.30
2019-04-03T17:02:48.656Z,81.60
2019-04-03T17:05:17.934Z,82.00
2019-04-03T17:07:47.373Z,82.10
2019-04-03T17:10:16.899Z,82.20
2019-04-03T17:12:47.915Z,82.60
2019-04-03T17:15:17.256Z,82.60
2019-04-03T17:17:47.120Z,82.70
2019-04-03T17:20:17.247Z,82.90
2019-04-03T17:22:46.927Z,83.00
2019-04-03T17:25:16.424Z,83.10
2019-04-03T17:27:55.043Z,83.10
2019-04-03T17:30:18.298Z,83.30
2019-04-03T17:32:49.310Z,83.20
2019-04-03T17:35:18.972Z,83.40
2019-04-03T17:37:48.359Z,83.40
2019-04-03T17:40:17.700Z,83.40
2019-04-03T17:42:46.994Z,83.70
2019-04-03T17:45:16.491Z,83.80
2019-04-03T17:47:45.886Z,83.90
2019-04-03T17:50:15.217Z,84.00
2019-04-03T17:52:44.492Z,84.10
2019-04-03T17:55:13.920Z,84.20
2019-04-03T17:57:45.291Z,84.30
2019-04-03T18:00:16.767Z,84.30
2019-04-03T18:02:46.032Z,84.40
2019-04-03T18:05:15.532Z,84.60
2019-04-03T18:07:44.827Z,84.50
2019-04-03T18:10:14.532Z,84.60
2019-04-03T18:12:45.670Z,84.70
2019-04-03T18:15:15.740Z,84.90
2019-04-03T18:17:45.028Z,85.80
2019-04-03T18:20:14.733Z,86.00
2019-04-03T18:22:44.001Z,85.30
2019-04-03T18:25:14.002Z,85.50
2019-04-03T18:27:43.280Z,85.70
2019-04-03T18:30:13.188Z,85.70
2019-04-03T18:32:45.530Z,86.10
2019-04-03T18:35:14.150Z,86.10
2019-04-03T18:37:43.425Z,86.20
2019-04-03T18:40:15.100Z,86.50
2019-04-03T18:42:44.019Z,86.60
2019-04-03T18:45:24.535Z,86.90
2019-04-03T18:47:46.459Z,87.00
2019-04-03T18:50:15.644Z,88.00
2019-04-03T18:52:44.995Z,87.30
2019-04-03T18:55:14.775Z,87.50
2019-04-03T18:57:44.230Z,87.90
2019-04-03T19:00:14.041Z,88.10
2019-04-03T19:02:43.329Z,88.40
2019-04-03T19:05:14.236Z,88.60
2019-04-03T19:07:45.866Z,88.90
2019-04-03T19:10:17.947Z,89.00
2019-04-03T19:12:45.908Z,89.40
2019-04-03T19:15:15.348Z,89.40
2019-04-03T19:17:44.625Z,89.60
2019-04-03T19:20:14.017Z,89.80
2019-04-03T19:22:43.293Z,90.00
2019-04-03T19:25:12.634Z,90.00
2019-04-03T19:27:41.938Z,90.00
2019-04-03T19:30:12.178Z,90.10
2019-04-03T19:32:43.258Z,90.20
2019-04-03T19:35:12.585Z,90.20
2019-04-03T19:37:45.171Z,90.30
2019-04-03T19:40:13.921Z,90.30
2019-04-03T19:42:43.875Z,90.40
2019-04-03T19:45:13.892Z,90.50
2019-04-03T19:47:43.156Z,90.50
2019-04-03T19:50:12.578Z,90.60
2019-04-03T19:52:42.453Z,90.70
2019-04-03T19:55:13.489Z,90.80
2019-04-03T19:57:42.751Z,90.80
2019-04-03T20:00:13.140Z,90.90
2019-04-03T20:02:42.997Z,90.90
2019-04-03T20:05:13.253Z,90.90
2019-04-03T20:07:42.700Z,90.90
2019-04-03T20:10:12.054Z,91.00
2019-04-03T20:12:41.484Z,91.00
2019-04-03T20:15:11.303Z,91.00
2019-04-03T20:17:40.581Z,91.10
2019-04-03T20:20:11.477Z,91.10
2019-04-03T20:22:42.392Z,91.10
2019-04-03T20:25:15.130Z,91.10
2019-04-03T20:27:46.994Z,91.10
2019-04-03T20:30:15.007Z,91.10
2019-04-03T20:32:44.294Z,91.10
2019-04-03T20:35:13.564Z,91.10
2019-04-03T20:37:44.084Z,91.10
2019-04-03T20:40:13.468Z,91.10
2019-04-03T20:42:42.748Z,91.10
2019-04-03T20:45:12.099Z,91.20
2019-04-03T20:47:41.393Z,91.20
2019-04-03T20:50:11.057Z,91.20
2019-04-03T20:52:41.412Z,91.20
2019-04-03T20:55:10.770Z,91.20
2019-04-03T20:57:40.070Z,91.30
2019-04-03T21:00:13.868Z,91.30
2019-04-03T21:02:43.228Z,91.30
2019-04-03T21:05:12.496Z,91.40
2019-04-03T21:07:41.779Z,91.40
2019-04-03T21:10:11.500Z,91.40
2019-04-03T21:12:40.784Z,91.50
2019-04-03T21:15:13.717Z,91.50
2019-04-03T21:17:42.515Z,91.50
2019-04-03T21:20:12.222Z,91.50
2019-04-03T21:22:41.505Z,91.50
2019-04-03T21:25:10.842Z,91.50
2019-04-03T21:27:40.725Z,91.90
2019-04-03T21:30:10.916Z,91.50
2019-04-03T21:32:40.200Z,91.50
2019-04-03T21:35:09.786Z,91.60
2019-04-03T21:37:40.527Z,91.60
2019-04-03T21:40:10.276Z,91.60
2019-04-03T21:42:39.568Z,91.60
2019-04-03T21:45:09.192Z,91.60
2019-04-03T21:47:38.490Z,91.60
2019-04-03T21:50:07.907Z,91.60
2019-04-03T21:52:37.163Z,92.00
2019-04-03T21:55:07.625Z,91.70
2019-04-03T21:57:38.419Z,92.10
2019-04-03T22:00:13.188Z,91.80
2019-04-03T22:02:44.853Z,91.80
2019-04-03T22:05:13.192Z,91.80
2019-04-03T22:07:42.465Z,91.80
2019-04-03T22:10:13.344Z,91.90
2019-04-03T22:12:42.632Z,91.90
2019-04-03T22:15:13.936Z,91.90
2019-04-03T22:17:43.741Z,91.90
2019-04-03T22:20:14.267Z,91.90
2019-04-03T22:22:43.550Z,91.90
2019-04-03T22:25:12.834Z,91.90
2019-04-03T22:27:42.711Z,92.00
2019-04-03T22:30:12.683Z,92.40
2019-04-03T22:32:41.969Z,92.00
2019-04-03T22:35:11.233Z,92.10
2019-04-03T22:37:40.524Z,92.10
2019-04-03T22:40:10.975Z,92.10
2019-04-03T22:42:40.296Z,92.20
2019-04-03T22:45:10.561Z,92.20
2019-04-03T22:47:39.861Z,92.30
2019-04-03T22:50:09.491Z,92.20
2019-04-03T22:52:39.930Z,92.30
2019-04-03T22:55:09.755Z,92.30
2019-04-03T22:57:39.032Z,92.50
2019-04-03T23:00:08.440Z,92.30
2019-04-03T23:02:39.328Z,92.30
2019-04-03T23:05:08.677Z,92.40
2019-04-03T23:07:37.951Z,92.40
2019-04-03T23:10:07.324Z,92.40
2019-04-03T23:12:36.589Z,92.40
2019-04-03T23:15:08.919Z,92.40
2019-04-03T23:17:37.891Z,92.50
2019-04-03T23:20:07.300Z,92.40
2019-04-03T23:22:37.541Z,92.50
2019-04-03T23:25:07.062Z,92.50
2019-04-03T23:27:36.347Z,92.50
2019-04-03T23:30:10.057Z,92.50
2019-04-03T23:32:37.794Z,92.50
2019-04-03T23:35:07.328Z,92.60
2019-04-03T23:37:36.610Z,92.60
2019-04-03T23:40:06.755Z,92.60
2019-04-03T23:42:37.913Z,92.70
2019-04-03T23:45:08.165Z,92.70
2019-04-03T23:47:38.496Z,92.70
2019-04-03T23:50:08.125Z,92.70
2019-04-03T23:52:37.398Z,92.70
2019-04-03T23:55:07.217Z,92.70
2019-04-03T23:57:39.595Z,92.70
